Flight Track Log - Related Links

Times and Time Zones

All times are in EDT time to prevent confusion due to time zone crossing. See the UPS991 flight status page for this flight to view local times or setup timezone preferences in your user account.

Time Position Orientation Groundspeed Altitude Reporting Facility
EDT Latitude Longitude Course Direction KTS MPH feet Rate Location/Type
Sun 07:50:12 AM 41.5553 -93.6719 309° West 152 175 2,000  Level Minneapolis Center
Sun 07:50:48 AM 41.5767 -93.7075 309° West 209 241 3,100 2,227 Climbing Minneapolis Center
Sun 07:51:49 AM 41.6306 -93.6867 16° North 263 303 5,600 2,415 Climbing Minneapolis Center
Sun 07:52:10 AM 41.6228 -93.6664 117° Southeast 253 291 6,400 2,991 Climbing Minneapolis Center
Sun 07:57:36 AM 41.3801 -92.9656 112° Southeast 466 536 22,900 2,815 Climbing FlightAware ADS-B
Sun 07:58:23 AM 41.3423 -92.8420 115° Southeast 461 531 23,900 1,865 Climbing FlightAware ADS-B
Sun 07:58:50 AM 41.3090 -92.7781 132° Southeast 458 527 25,200 2,596 Climbing FlightAware ADS-B
Sun 08:00:07 AM 41.2183 -92.5908 111° Southeast 492 566 28,400 2,667 Climbing FlightAware ADS-B
Sun 08:00:38 AM 41.1928 -92.5058 112° Southeast 489 563 30,000 2,903 Climbing FlightAware ADS-B
Sun 08:01:09 AM 41.1677 -92.4206 111° Southeast 488 562 31,400 2,545 Climbing FlightAware ADS-B
Sun 08:01:44 AM 41.1386 -92.3225 111° Southeast 490 564 32,800 1,920 Climbing FlightAware ADS-B
Sun 08:02:24 AM 41.1050 -92.2086 111° Southeast 502 578 33,800 1,039 Climbing FlightAware ADS-B
Sun 08:03:51 AM 41.0296 -91.9556 112° Southeast 515 593 35,000 497 Climbing FlightAware ADS-B
Sun 08:04:49 AM 40.9790 -91.7874 112° Southeast 512 589 35,000  Level FlightAware ADS-B
Sun 08:09:50 AM 40.6863 -90.9509 118° Southeast 500 575 35,000  Level FlightAware ADS-B
Sun 08:10:21 AM 40.6537 -90.8688 118° Southeast 500 575 35,000  Level FlightAware ADS-B
Sun 08:11:38 AM 40.5719 -90.6624 118° Southeast 501 577 35,000  Level FlightAware ADS-B
Sun 08:14:02 AM 40.4167 -90.2732 118° Southeast 504 580 35,000  Level FlightAware ADS-B
Sun 08:15:09 AM 40.3443 -90.0934 118° Southeast 508 585 35,000  Level FlightAware ADS-B
Sun 08:16:34 AM 40.2500 -89.8611 118° Southeast 510 587 35,000  Level FlightAware ADS-B
Sun 08:17:16 AM 40.2032 -89.7462 118° Southeast 508 585 35,000  Level FlightAware ADS-B
Sun 08:17:56 AM 40.1632 -89.6482 118° Southeast 508 585 35,000  Level FlightAware ADS-B
Sun 08:18:59 AM 40.1180 -89.5384 118° Southeast 506 582 35,000  Level FlightAware ADS-B
Sun 08:20:29 AM 39.9908 -89.2310 118° Southeast 503 579 35,000  Level FlightAware ADS-B
Sun 08:21:24 AM 39.9327 -89.0916 118° Southeast 500 575 35,000 -529 Level FlightAware ADS-B
Sun 08:23:53 AM 39.9327 -89.0916 119° Southeast 488 562 33,200 -835 Descending FlightAware ADS-B
Sun 08:24:38 AM 39.9749 -89.1927 119° Southeast 484 557 32,300 -1,238 Descending FlightAware ADS-B
Sun 08:25:59 AM 39.6331 -88.3819 119° Southeast 482 555 30,600 -1,183 Descending Chicago Center
Sun 08:27:00 AM 39.5697 -88.2344 119° Southeast 470 541 29,500 -800 Descending Chicago Center
Sun 08:27:59 AM 39.5044 -88.0836 119° Southeast 467 537 29,000 -250 Descending Kansas City Center
Sun 08:29:00 AM 39.4411 -87.9369 119° Southeast 466 536 29,000 -246 Level Kansas City Center
Sun 08:30:01 AM 39.3775 -87.7906 119° Southeast 466 536 28,500 -738 Descending Kansas City Center
Sun 08:31:02 AM 39.3144 -87.6458 119° Southeast 463 533 27,500 -1,082 Descending Kansas City Center
Sun 08:32:03 AM 39.2517 -87.5025 119° Southeast 460 529 26,300 -1,200 Descending Kansas City Center
Sun 08:33:07 AM 39.1853 -87.3517 120° Southeast 452 520 25,000 -1,381 Descending Chicago Center
Sun 08:34:09 AM 39.1247 -87.2153 120° Southeast 442 509 23,400 -1,535 Descending Chicago Center
Sun 08:35:16 AM 39.0583 -87.0661 120° Southeast 419 482 21,700 -1,594 Descending Indianapolis Center
Sun 08:36:17 AM 39.0014 -86.9386 120° Southeast 402 463 20,000 -1,707 Descending Indianapolis Center
Sun 08:37:19 AM 38.9472 -86.8181 120° Southeast 387 445 18,200 -1,805 Descending Indianapolis Center
Sun 08:38:20 AM 38.8947 -86.7011 120° Southeast 376 433 16,300 -1,721 Descending Indianapolis Center
Sun 08:39:21 AM 38.8431 -86.5869 120° Southeast 370 426 14,700 -1,561 Descending Indianapolis Center
Sun 08:40:23 AM 38.7911 -86.4758 121° Southeast 359 413 13,100 -1,322 Descending Indianapolis Center
Sun 08:46:05 AM 38.4884 -85.9763 128° Southeast 285 328 5,800 -1,281 Descending FlightAware ADS-B
Sun 08:46:33 AM 38.4622 -85.9337 128° Southeast 284 327 5,200 -1,304 Descending FlightAware ADS-B
Sun 08:46:51 AM 38.4501 -85.9140 128° Southeast 282 325 4,800 -1,167 Descending FlightAware ADS-B
Sun 08:47:09 AM 38.4360 -85.8912 129° Southeast 279 321 4,500 -1,171 Descending FlightAware ADS-B
Sun 08:47:32 AM 38.4192 -85.8645 128° Southeast 276 318 4,000 -1,102 Descending FlightAware ADS-B
Sun 08:47:58 AM 38.3945 -85.8248 129° Southeast 273 314 3,600 -941 Descending FlightAware ADS-B
Sun 08:48:23 AM 38.3742 -85.7967 146° Southeast 252 290 3,200 -750 Descending FlightAware ADS-B
Sun 08:48:30 AM 38.3669 -85.7926 163° South 235 270 3,200 -500 Level FlightAware ADS-B
Sun 08:48:59 AM 38.3376 -85.7830 163° South 217 250 2,900 -277 Descending FlightAware ADS-B
Sun 08:49:35 AM 38.3075 -85.7736 163° South 235 270 2,900 -184 Level Indianapolis Center
Sun 08:50:37 AM 38.2606 -85.7572 165° South 220 253 2,600 -290 Descending Indianapolis Center
Sun 08:52:00 AM 38.1741 -85.7365 159° South  Level Estimated
Sun 08:59:00 AM 38.1741 -85.7365 28° Northeast  Level Estimated
Sun 09:00:00 AM 38.1741 -85.7365 28° Northeast  Level Estimated

Login

Don't have an account? Register now (free) for customized features, flight alerts, and more!